Time;durP1;ratioP1;P1;durP2;ratioP2;P2;SDS_P1;SDS_P2;PMS_P1;PMS_P2;Temp;Humidity;BMP_temperature;BMP_pressure;BME280_temperature;BME280_humidity;BME280_pressure;Samples;Min_cycle;Max_cycle;Signal;HPM_P1;HPM_P2
2022/05/15 00:02:25;;;;;;;0.10;0.10;;;;;;;;;;6205023;23;20275;-78
2022/05/15 00:04:51;;;;;;;0.10;0.10;;;;;;;;;;6196102;23;20529;-79
2022/05/15 00:07:19;;;;;;;0.10;0.10;;;;;;;;;;6204826;23;20271;-77
2022/05/15 00:09:45;;;;;;;0.03;0.03;;;;;;;;;;6195453;23;20174;-78
2022/05/15 00:12:12;;;;;;;0.00;0.00;;;;;;;;;;6204410;23;20212;-78
2022/05/15 00:14:39;;;;;;;0.10;0.10;;;;;;;;;;6195763;23;20430;-78
2022/05/15 00:17:05;;;;;;;0.10;0.10;;;;;;;;;;6203987;23;20454;-78
2022/05/15 00:19:31;;;;;;;0.03;0.03;;;;;;;;;;6195695;23;20201;-78
2022/05/15 00:21:58;;;;;;;0.00;0.00;;;;;;;;;;6202869;23;20262;-77
2022/05/15 00:24:28;;;;;;;0.00;0.00;;;;;;;;;;6196834;23;20185;-77
2022/05/15 00:26:54;;;;;;;0.00;0.00;;;;;;;;;;6201841;23;20513;-77
2022/05/15 00:29:22;;;;;;;0.10;0.10;;;;;;;;;;6197365;23;20262;-77
2022/05/15 00:31:48;;;;;;;0.10;0.10;;;;;;;;;;6201142;23;20250;-77
2022/05/15 00:34:15;;;;;;;0.10;0.10;;;;;;;;;;6198405;23;20738;-77
2022/05/15 00:36:41;;;;;;;0.10;0.10;;;;;;;;;;6199569;23;20270;-78
2022/05/15 00:39:08;;;;;;;0.10;0.10;;;;;;;;;;6199358;23;20513;-77
2022/05/15 00:41:37;;;;;;;0.10;0.10;;;;;;;;;;6198123;23;20221;-78
2022/05/15 00:44:04;;;;;;;0.10;0.10;;;;;;;;;;6200453;23;20244;-78
2022/05/15 00:46:32;;;;;;;0.10;0.10;;;;;;;;;;6197623;23;20274;-77
2022/05/15 00:48:59;;;;;;;0.10;0.10;;;;;;;;;;6201699;23;20365;-76
2022/05/15 00:51:27;;;;;;;0.00;0.00;;;;;;;;;;6196339;23;20219;-78
2022/05/15 00:53:57;;;;;;;0.10;0.10;;;;;;;;;;6202076;23;20176;-78
2022/05/15 00:56:24;;;;;;;0.10;0.10;;;;;;;;;;6196051;23;20215;-78
2022/05/15 00:58:55;;;;;;;0.10;0.10;;;;;;;;;;6193399;23;20183;-77
2022/05/15 01:01:22;;;;;;;0.10;0.10;;;;;;;;;;6195571;23;20257;-77
2022/05/15 01:03:48;;;;;;;0.10;0.10;;;;;;;;;;6203491;23;20546;-77
2022/05/15 01:06:15;;;;;;;0.10;0.10;;;;;;;;;;6194107;23;20531;-77
2022/05/15 01:08:41;;;;;;;0.10;0.10;;;;;;;;;;6204510;23;20165;-77
2022/05/15 01:11:10;;;;;;;0.10;0.10;;;;;;;;;;6192243;23;20216;-76
2022/05/15 01:13:38;;;;;;;0.10;0.10;;;;;;;;;;6206201;23;20172;-77
2022/05/15 01:16:06;;;;;;;0.10;0.10;;;;;;;;;;6191783;23;20308;-77
2022/05/15 01:18:34;;;;;;;0.10;0.10;;;;;;;;;;6206394;23;20187;-77
2022/05/15 01:21:01;;;;;;;0.10;0.10;;;;;;;;;;6190842;23;20215;-77
2022/05/15 01:23:29;;;;;;;0.00;0.00;;;;;;;;;;6207232;23;20187;-78
2022/05/15 01:25:58;;;;;;;0.10;0.10;;;;;;;;;;6190316;23;20212;-76
2022/05/15 01:28:26;;;;;;;0.07;0.07;;;;;;;;;;6207567;23;20184;-77
2022/05/15 01:30:53;;;;;;;0.00;0.00;;;;;;;;;;6189485;23;20212;-78
2022/05/15 01:33:20;;;;;;;0.00;0.00;;;;;;;;;;6208660;23;20223;-78
2022/05/15 01:35:46;;;;;;;0.10;0.10;;;;;;;;;;6188397;23;20421;-78
2022/05/15 01:38:14;;;;;;;0.10;0.10;;;;;;;;;;6210484;23;20208;-77
2022/05/15 01:40:40;;;;;;;0.10;0.10;;;;;;;;;;6186867;23;20252;-76
2022/05/15 01:43:10;;;;;;;0.00;0.00;;;;;;;;;;6211045;23;20205;-77
2022/05/15 01:45:36;;;;;;;0.10;0.10;;;;;;;;;;6186505;23;20589;-78
2022/05/15 01:48:02;;;;;;;0.00;0.00;;;;;;;;;;6212224;23;20375;-76
2022/05/15 01:50:29;;;;;;;0.10;0.10;;;;;;;;;;6184834;23;20212;-76
2022/05/15 01:52:55;;;;;;;0.10;0.10;;;;;;;;;;6213655;23;20193;-75
2022/05/15 01:55:23;;;;;;;0.10;0.10;;;;;;;;;;6185159;23;20184;-77
2022/05/15 01:57:49;;;;;;;0.10;0.10;;;;;;;;;;6217110;23;20497;-78
2022/05/15 02:00:16;;;;;;;0.10;0.10;;;;;;;;;;6183907;23;20279;-78
2022/05/15 02:02:43;;;;;;;0.10;0.10;;;;;;;;;;6218027;23;20178;-76
2022/05/15 02:05:09;;;;;;;0.10;0.10;;;;;;;;;;6182834;23;20189;-77
2022/05/15 02:07:35;;;;;;;0.10;0.10;;;;;;;;;;6219565;23;20172;-78
2022/05/15 02:10:02;;;;;;;0.00;0.00;;;;;;;;;;6196172;23;20174;-78
2022/05/15 02:12:30;;;;;;;0.10;0.10;;;;;;;;;;6205236;23;20212;-78
2022/05/15 02:14:58;;;;;;;0.00;0.00;;;;;;;;;;6196889;23;20234;-77
2022/05/15 02:17:24;;;;;;;0.00;0.00;;;;;;;;;;6205876;23;20409;-78
2022/05/15 02:19:50;;;;;;;0.10;0.10;;;;;;;;;;6196264;23;20522;-77
2022/05/15 02:22:17;;;;;;;0.10;0.10;;;;;;;;;;6205665;23;20218;-78
2022/05/15 02:24:43;;;;;;;0.00;0.00;;;;;;;;;;6196162;23;20231;-77
2022/05/15 02:27:09;;;;;;;0.10;0.10;;;;;;;;;;6205136;23;20215;-77
2022/05/15 02:29:40;;;;;;;0.10;0.10;;;;;;;;;;6196052;23;20244;-79
2022/05/15 02:32:06;;;;;;;0.10;0.10;;;;;;;;;;6205357;23;20456;-77
2022/05/15 02:34:32;;;;;;;0.10;0.10;;;;;;;;;;6196508;23;20173;-77
2022/05/15 02:36:59;;;;;;;0.10;0.10;;;;;;;;;;6204314;23;20215;-78
2022/05/15 02:39:25;;;;;;;0.10;0.10;;;;;;;;;;6197657;23;20227;-78
2022/05/15 02:41:51;;;;;;;0.10;0.10;;;;;;;;;;6202887;23;20215;-77
2022/05/15 02:44:17;;;;;;;0.10;0.10;;;;;;;;;;6198805;23;20267;-79
2022/05/15 02:46:45;;;;;;;0.10;0.10;;;;;;;;;;6201277;23;20280;-77
2022/05/15 02:51:56;;;;;;;0.10;0.10;;;;;;;;;;6203460;23;20268;-77
2022/05/15 02:54:22;;;;;;;0.00;0.00;;;;;;;;;;6198262;23;20475;-77
2022/05/15 02:56:49;;;;;;;0.10;0.10;;;;;;;;;;6202099;23;20214;-78
2022/05/15 02:59:15;;;;;;;0.10;0.10;;;;;;;;;;6199267;23;20492;-77
2022/05/15 03:01:41;;;;;;;0.00;0.00;;;;;;;;;;6200634;23;20208;-77
2022/05/15 03:04:09;;;;;;;0.10;0.10;;;;;;;;;;6200539;23;20523;-77
2022/05/15 03:06:37;;;;;;;0.00;0.00;;;;;;;;;;6198835;23;20274;-78
2022/05/15 03:09:03;;;;;;;0.00;0.00;;;;;;;;;;6201845;23;20185;-78
2022/05/15 03:11:31;;;;;;;0.10;0.10;;;;;;;;;;6198085;23;20450;-78
2022/05/15 03:14:00;;;;;;;0.00;0.00;;;;;;;;;;6201995;23;20514;-78
2022/05/15 03:16:28;;;;;;;0.10;0.10;;;;;;;;;;6197566;23;20471;-78
2022/05/15 03:18:54;;;;;;;0.00;0.00;;;;;;;;;;6203483;23;20244;-78
2022/05/15 03:21:30;;;;;;;0.10;0.10;;;;;;;;;;6196289;23;20222;-77
2022/05/15 03:23:57;;;;;;;0.07;0.07;;;;;;;;;;6203182;23;20408;-76
2022/05/15 03:26:24;;;;;;;0.10;0.10;;;;;;;;;;6196760;23;20282;-78
2022/05/15 03:28:50;;;;;;;0.10;0.10;;;;;;;;;;6203667;23;20397;-79
2022/05/15 03:31:17;;;;;;;0.10;0.10;;;;;;;;;;6195157;23;20206;-77
2022/05/15 03:33:43;;;;;;;0.10;0.10;;;;;;;;;;6205194;23;20179;-77
2022/05/15 03:36:11;;;;;;;0.10;0.10;;;;;;;;;;6194402;23;20273;-77
2022/05/15 03:38:39;;;;;;;0.10;0.10;;;;;;;;;;6206020;23;20180;-77
2022/05/15 03:41:06;;;;;;;0.10;0.10;;;;;;;;;;6192985;23;20212;-79
2022/05/15 03:43:32;;;;;;;0.10;0.10;;;;;;;;;;6207242;23;20181;-77
2022/05/15 03:45:58;;;;;;;0.10;0.10;;;;;;;;;;6191980;23;20449;-76
2022/05/15 03:48:24;;;;;;;0.00;0.00;;;;;;;;;;6208609;23;20310;-78
2022/05/15 03:50:51;;;;;;;0.00;0.00;;;;;;;;;;6189686;23;20212;-77
2022/05/15 03:53:17;;;;;;;0.10;0.10;;;;;;;;;;6210314;23;20375;-78
2022/05/15 03:55:45;;;;;;;0.00;0.00;;;;;;;;;;6188929;23;20449;-77
2022/05/15 03:58:12;;;;;;;0.10;0.10;;;;;;;;;;6211277;23;20177;-79
2022/05/15 04:00:39;;;;;;;0.00;0.00;;;;;;;;;;6187286;23;20255;-78
2022/05/15 04:03:06;;;;;;;0.00;0.00;;;;;;;;;;6211972;23;20171;-79
2022/05/15 04:05:37;;;;;;;0.10;0.10;;;;;;;;;;6184088;23;20195;-76
2022/05/15 04:08:03;;;;;;;0.10;0.10;;;;;;;;;;6215161;23;20234;-76
2022/05/15 04:10:30;;;;;;;0.10;0.10;;;;;;;;;;6185630;23;20305;-74
2022/05/15 04:12:57;;;;;;;0.10;0.10;;;;;;;;;;6213810;23;20203;-75
2022/05/15 04:15:24;;;;;;;0.10;0.10;;;;;;;;;;6184502;23;20387;-74
2022/05/15 04:17:51;;;;;;;0.10;0.10;;;;;;;;;;6215244;23;20176;-75
2022/05/15 04:20:18;;;;;;;0.10;0.10;;;;;;;;;;6183140;23;20206;-74
2022/05/15 04:22:44;;;;;;;0.10;0.10;;;;;;;;;;6216449;23;20179;-74
2022/05/15 04:25:11;;;;;;;0.10;0.10;;;;;;;;;;6181959;23;20225;-75
2022/05/15 04:27:38;;;;;;;0.10;0.10;;;;;;;;;;6217840;23;20178;-75
2022/05/15 04:30:06;;;;;;;0.10;0.10;;;;;;;;;;6195186;23;20180;-74
2022/05/15 04:32:33;;;;;;;0.10;0.10;;;;;;;;;;6179242;23;20200;-75
2022/05/15 04:34:59;;;;;;;0.10;0.10;;;;;;;;;;6195502;23;20371;-75
2022/05/15 04:37:25;;;;;;;0.10;0.10;;;;;;;;;;6204285;23;20470;-75
2022/05/15 04:39:51;;;;;;;0.10;0.10;;;;;;;;;;6194922;23;20308;-74
2022/05/15 04:42:18;;;;;;;0.10;0.10;;;;;;;;;;6204350;23;20215;-75
2022/05/15 04:44:45;;;;;;;0.10;0.10;;;;;;;;;;6194995;23;20185;-74
2022/05/15 04:47:13;;;;;;;0.10;0.10;;;;;;;;;;6204573;23;20215;-75
2022/05/15 04:49:39;;;;;;;0.10;0.10;;;;;;;;;;6194964;23;20405;-75
2022/05/15 04:52:06;;;;;;;0.10;0.10;;;;;;;;;;6204308;23;20609;-75
2022/05/15 04:54:32;;;;;;;0.10;0.10;;;;;;;;;;6195025;23;20534;-74
2022/05/15 04:56:58;;;;;;;0.10;0.10;;;;;;;;;;6202514;23;20214;-74
2022/05/15 04:59:25;;;;;;;0.10;0.10;;;;;;;;;;6196275;23;20188;-74
2022/05/15 05:01:51;;;;;;;0.10;0.10;;;;;;;;;;6201285;23;20277;-75
2022/05/15 05:04:19;;;;;;;0.00;0.00;;;;;;;;;;6197282;23;20180;-75
2022/05/15 05:06:45;;;;;;;0.10;0.10;;;;;;;;;;6199794;23;20215;-78
2022/05/15 05:09:11;;;;;;;0.10;0.10;;;;;;;;;;6199120;23;20234;-77
2022/05/15 05:11:38;;;;;;;0.10;0.10;;;;;;;;;;6198578;23;20214;-77
2022/05/15 05:14:04;;;;;;;0.10;0.10;;;;;;;;;;6200249;23;20181;-78
2022/05/15 05:16:31;;;;;;;0.00;0.00;;;;;;;;;;6196772;23;20588;-77
2022/05/15 05:18:57;;;;;;;0.10;0.10;;;;;;;;;;6201452;23;20227;-77
2022/05/15 05:21:25;;;;;;;0.10;0.10;;;;;;;;;;6195382;23;20232;-77
2022/05/15 05:23:51;;;;;;;0.10;0.10;;;;;;;;;;6202314;23;20180;-78
2022/05/15 05:26:17;;;;;;;0.10;0.10;;;;;;;;;;6194729;23;20307;-78
2022/05/15 05:28:43;;;;;;;0.10;0.10;;;;;;;;;;6204352;23;20184;-77
2022/05/15 05:31:11;;;;;;;0.03;0.03;;;;;;;;;;6194765;23;20213;-78
2022/05/15 05:33:37;;;;;;;0.10;0.10;;;;;;;;;;6206985;23;20177;-78
2022/05/15 05:36:04;;;;;;;0.00;0.00;;;;;;;;;;6193542;23;20217;-79
2022/05/15 05:38:32;;;;;;;0.10;0.10;;;;;;;;;;6209006;23;20194;-78
2022/05/15 05:40:58;;;;;;;0.10;0.10;;;;;;;;;;6192552;23;20250;-78
2022/05/15 05:43:24;;;;;;;0.00;0.00;;;;;;;;;;6209737;23;20174;-77
2022/05/15 05:45:51;;;;;;;0.10;0.10;;;;;;;;;;6185707;23;20222;-79
2022/05/15 05:48:17;;;;;;;0.10;0.10;;;;;;;;;;6211336;23;20183;-78
2022/05/15 05:50:43;;;;;;;0.10;0.10;;;;;;;;;;6189605;23;20219;-78
2022/05/15 05:53:10;;;;;;;0.10;0.10;;;;;;;;;;6212919;23;20173;-78
2022/05/15 05:55:37;;;;;;;0.00;0.00;;;;;;;;;;6188193;23;20214;-78
2022/05/15 05:58:04;;;;;;;0.10;0.10;;;;;;;;;;6213620;23;20183;-78
2022/05/15 06:00:35;;;;;;;0.10;0.10;;;;;;;;;;6185981;23;20213;-79
2022/05/15 06:05:47;;;;;;;0.10;0.10;;;;;;;;;;6189294;23;20562;-79
2022/05/15 06:08:16;;;;;;;0.10;0.10;;;;;;;;;;6212049;23;20232;-78
2022/05/15 06:10:44;;;;;;;0.03;0.03;;;;;;;;;;6189336;23;20271;-78
2022/05/15 06:13:10;;;;;;;0.10;0.10;;;;;;;;;;6212430;23;20403;-78
2022/05/15 06:15:36;;;;;;;0.10;0.10;;;;;;;;;;6188371;23;20593;-79
2022/05/15 06:18:04;;;;;;;0.10;0.10;;;;;;;;;;6213923;23;20183;-79
2022/05/15 06:20:31;;;;;;;0.00;0.00;;;;;;;;;;6187048;23;20215;-78
2022/05/15 06:22:57;;;;;;;0.00;0.00;;;;;;;;;;6215057;23;20238;-78
2022/05/15 06:25:24;;;;;;;0.10;0.10;;;;;;;;;;6185072;23;20255;-78
2022/05/15 06:27:52;;;;;;;0.10;0.10;;;;;;;;;;6216076;23;20232;-77
2022/05/15 06:30:18;;;;;;;0.10;0.10;;;;;;;;;;6184276;23;20485;-78
2022/05/15 06:32:45;;;;;;;0.03;0.03;;;;;;;;;;6217360;23;20227;-78
2022/05/15 06:35:13;;;;;;;0.10;0.10;;;;;;;;;;6182412;23;20365;-77
2022/05/15 06:37:39;;;;;;;0.00;0.00;;;;;;;;;;6219011;23;20221;-77
2022/05/15 06:40:07;;;;;;;0.00;0.00;;;;;;;;;;6190537;23;20382;-76
2022/05/15 06:42:34;;;;;;;0.10;0.10;;;;;;;;;;6218806;23;20188;-77
2022/05/15 06:45:01;;;;;;;0.10;0.10;;;;;;;;;;6196404;23;20184;-78
2022/05/15 06:47:28;;;;;;;0.07;0.07;;;;;;;;;;6205518;23;20214;-78
2022/05/15 06:49:54;;;;;;;0.10;0.10;;;;;;;;;;6195979;23;20238;-77
2022/05/15 06:52:22;;;;;;;0.10;0.10;;;;;;;;;;6205207;23;20215;-78
2022/05/15 06:54:48;;;;;;;0.00;0.00;;;;;;;;;;6195880;23;20219;-77
2022/05/15 06:57:29;;;;;;;0.10;0.10;;;;;;;;;;6205136;23;20224;-77
2022/05/15 06:59:55;;;;;;;0.10;0.10;;;;;;;;;;6195793;23;20203;-78
2022/05/15 07:02:23;;;;;;;0.10;0.10;;;;;;;;;;6204907;23;20210;-78
2022/05/15 07:04:49;;;;;;;0.00;0.00;;;;;;;;;;6195696;23;20393;-77
2022/05/15 07:07:15;;;;;;;0.10;0.10;;;;;;;;;;6204947;23;20227;-77
2022/05/15 07:09:42;;;;;;;0.00;0.00;;;;;;;;;;6195818;23;20228;-78
2022/05/15 07:12:08;;;;;;;0.00;0.00;;;;;;;;;;6204818;23;20209;-78
2022/05/15 07:14:35;;;;;;;0.10;0.10;;;;;;;;;;6196155;23;20188;-78
2022/05/15 07:17:01;;;;;;;0.10;0.10;;;;;;;;;;6204040;23;20216;-78
2022/05/15 07:19:29;;;;;;;0.10;0.10;;;;;;;;;;6196297;23;20188;-78
2022/05/15 07:21:55;;;;;;;0.10;0.10;;;;;;;;;;6202807;23;20212;-77
2022/05/15 07:24:22;;;;;;;0.10;0.10;;;;;;;;;;6197386;23;20166;-79
2022/05/15 07:26:48;;;;;;;0.03;0.03;;;;;;;;;;6201748;23;20208;-77
2022/05/15 07:29:16;;;;;;;0.10;0.10;;;;;;;;;;6198716;23;20190;-78
2022/05/15 07:31:42;;;;;;;0.10;0.10;;;;;;;;;;6199957;23;20260;-80
2022/05/15 07:34:08;;;;;;;0.00;0.00;;;;;;;;;;6200028;23;20217;-79
2022/05/15 07:36:36;;;;;;;0.03;0.03;;;;;;;;;;6198682;23;20244;-79
2022/05/15 07:39:03;;;;;;;0.10;0.10;;;;;;;;;;6201135;23;20207;-77
2022/05/15 07:41:29;;;;;;;0.10;0.10;;;;;;;;;;6197976;23;20516;-78
2022/05/15 07:43:55;;;;;;;0.00;0.00;;;;;;;;;;6202822;23;20181;-77
2022/05/15 07:46:22;;;;;;;0.03;0.03;;;;;;;;;;6184292;23;20243;-77
2022/05/15 07:48:48;;;;;;;0.00;0.00;;;;;;;;;;6203639;23;20242;-79
2022/05/15 07:51:14;;;;;;;0.10;0.10;;;;;;;;;;6194735;23;20209;-78
2022/05/15 07:53:42;;;;;;;0.03;0.03;;;;;;;;;;6205404;23;20190;-78
2022/05/15 07:56:12;;;;;;;0.10;0.10;;;;;;;;;;6193628;23;20215;-77
2022/05/15 07:58:39;;;;;;;0.00;0.00;;;;;;;;;;6205490;23;20508;-78
2022/05/15 08:01:06;;;;;;;0.00;0.00;;;;;;;;;;6192760;23;20480;-79
2022/05/15 08:03:33;;;;;;;0.00;0.00;;;;;;;;;;6207007;23;20224;-79
2022/05/15 08:08:50;;;;;;;0.10;0.10;;;;;;;;;;6204468;23;20181;-78
2022/05/15 08:11:16;;;;;;;0.00;0.00;;;;;;;;;;6195048;23;20209;-78
2022/05/15 08:13:43;;;;;;;0.10;0.10;;;;;;;;;;6204805;23;20179;-78
2022/05/15 08:16:09;;;;;;;0.07;0.07;;;;;;;;;;6192587;23;20213;-77
2022/05/15 08:24:08;;;;;;;0.10;0.10;;;;;;;;;;6200592;23;20174;-79
2022/05/15 08:26:37;;;;;;;0.00;0.00;;;;;;;;;;6184400;23;20265;-77
2022/05/15 08:29:03;;;;;;;0.00;0.00;;;;;;;;;;6200652;23;20194;-76
2022/05/15 08:31:31;;;;;;;0.10;0.10;;;;;;;;;;6197450;23;20216;-77
2022/05/15 08:33:57;;;;;;;0.00;0.00;;;;;;;;;;6201787;23;21848;-76
2022/05/15 08:36:24;;;;;;;0.00;0.00;;;;;;;;;;6196559;23;20219;-76
2022/05/15 08:38:50;;;;;;;0.00;0.00;;;;;;;;;;6193591;23;20180;-78
2022/05/15 08:41:19;;;;;;;0.00;0.00;;;;;;;;;;6194877;23;20206;-77
2022/05/15 08:43:46;;;;;;;0.00;0.00;;;;;;;;;;6204367;23;20225;-78
2022/05/15 08:46:34;;;;;;;0.00;0.00;;;;;;;;;;6193784;23;20215;-78
2022/05/15 08:49:04;;;;;;;0.00;0.00;;;;;;;;;;6193631;23;20182;-78
2022/05/15 08:51:31;;;;;;;0.00;0.00;;;;;;;;;;6196858;23;20217;-73
2022/05/15 08:53:59;;;;;;;0.00;0.00;;;;;;;;;;6201594;23;20278;-70
2022/05/15 08:56:27;;;;;;;0.00;0.00;;;;;;;;;;6196132;23;20261;-76
2022/05/15 08:58:55;;;;;;;0.10;0.10;;;;;;;;;;6202263;23;20226;-68
2022/05/15 09:01:27;;;;;;;0.03;0.03;;;;;;;;;;6193846;23;20211;-67
2022/05/15 09:03:54;;;;;;;0.03;0.03;;;;;;;;;;6202593;23;20177;-69
2022/05/15 09:06:24;;;;;;;0.08;0.08;;;;;;;;;;6194749;23;20214;-68
2022/05/15 09:09:06;;;;;;;0.00;0.00;;;;;;;;;;6202704;23;20524;-68
2022/05/15 09:11:43;;;;;;;0.10;0.10;;;;;;;;;;6196886;23;20203;-67
2022/05/15 09:14:12;;;;;;;0.00;0.00;;;;;;;;;;6199268;23;20227;-67
2022/05/15 09:16:42;;;;;;;0.05;0.05;;;;;;;;;;6198597;23;20220;-68
2022/05/15 09:19:08;;;;;;;0.00;0.00;;;;;;;;;;6199297;23;20183;-67
2022/05/15 09:21:34;;;;;;;0.05;0.05;;;;;;;;;;6197480;23;20258;-67
2022/05/15 09:24:06;;;;;;;0.00;0.00;;;;;;;;;;6200625;23;20177;-67
2022/05/15 09:26:43;;;;;;;0.00;0.00;;;;;;;;;;6197098;23;20235;-67
2022/05/15 09:29:20;;;;;;;0.00;0.00;;;;;;;;;;6198939;23;20480;-68
2022/05/15 09:31:46;;;;;;;0.00;0.00;;;;;;;;;;6199908;23;20460;-68
2022/05/15 09:34:22;;;;;;;0.00;0.00;;;;;;;;;;6198562;23;20197;-66
2022/05/15 09:36:49;;;;;;;0.10;0.10;;;;;;;;;;6200316;23;20408;-66
2022/05/15 09:39:24;;;;;;;0.00;0.00;;;;;;;;;;6197593;23;20190;-72
2022/05/15 09:44:44;;;;;;;0.00;0.00;;;;;;;;;;6194939;23;20198;-68
2022/05/15 09:47:21;;;;;;;0.00;0.00;;;;;;;;;;6203913;23;20219;-69
2022/05/15 09:49:47;;;;;;;0.00;0.00;;;;;;;;;;6195128;23;20187;-70
2022/05/15 09:52:17;;;;;;;0.00;0.00;;;;;;;;;;6203771;23;20223;-69
2022/05/15 09:54:46;;;;;;;0.00;0.00;;;;;;;;;;6194802;23;20218;-71
2022/05/15 09:57:16;;;;;;;0.00;0.00;;;;;;;;;;6203808;23;20221;-71
2022/05/15 09:59:43;;;;;;;0.00;0.00;;;;;;;;;;6194938;23;20340;-70
2022/05/15 10:02:17;;;;;;;0.00;0.00;;;;;;;;;;6203790;23;20211;-69
2022/05/15 10:04:47;;;;;;;0.10;0.10;;;;;;;;;;6194987;23;20350;-70
2022/05/15 10:07:28;;;;;;;0.00;0.00;;;;;;;;;;6204000;23;20261;-70
2022/05/15 10:09:54;;;;;;;0.00;0.00;;;;;;;;;;6195166;23;20183;-71
2022/05/15 10:12:26;;;;;;;0.00;0.00;;;;;;;;;;6203774;23;20400;-71
2022/05/15 10:14:55;;;;;;;0.00;0.00;;;;;;;;;;6194940;23;20184;-71
2022/05/15 10:17:22;;;;;;;0.00;0.00;;;;;;;;;;6205728;23;20286;-71
2022/05/15 10:19:51;;;;;;;0.00;0.00;;;;;;;;;;6197047;23;20180;-72
2022/05/15 10:22:23;;;;;;;0.00;0.00;;;;;;;;;;6205614;23;20243;-71
2022/05/15 10:24:49;;;;;;;0.00;0.00;;;;;;;;;;6196532;23;20183;-70
2022/05/15 10:27:19;;;;;;;0.00;0.00;;;;;;;;;;6205597;23;20294;-70
2022/05/15 10:29:50;;;;;;;0.00;0.00;;;;;;;;;;6196602;23;20461;-70
2022/05/15 10:32:18;;;;;;;0.00;0.00;;;;;;;;;;6205153;23;20275;-70
2022/05/15 10:34:45;;;;;;;0.00;0.00;;;;;;;;;;6196889;23;20185;-70
2022/05/15 10:37:26;;;;;;;5.68;5.38;;;;;;;;;;6205515;23;20242;-71
2022/05/15 10:40:02;;;;;;;0.08;0.08;;;;;;;;;;6177717;23;20179;-72
2022/05/15 10:42:32;;;;;;;0.00;0.00;;;;;;;;;;6205555;23;20208;-73
2022/05/15 10:45:04;;;;;;;0.00;0.00;;;;;;;;;;6196785;23;20240;-69
2022/05/15 10:47:32;;;;;;;0.00;0.00;;;;;;;;;;6205504;23;20220;-70
2022/05/15 10:50:12;;;;;;;0.00;0.00;;;;;;;;;;6195980;23;20177;-69
2022/05/15 10:52:55;;;;;;;0.00;0.00;;;;;;;;;;6179978;23;20376;-71
2022/05/15 10:58:15;;;;;;;0.00;0.00;;;;;;;;;;6212764;23;20527;-68
2022/05/15 11:00:46;;;;;;;0.00;0.00;;;;;;;;;;6188709;23;20299;-69
2022/05/15 11:03:20;;;;;;;0.00;0.00;;;;;;;;;;6211746;23;20416;-69
2022/05/15 11:05:55;;;;;;;0.00;0.00;;;;;;;;;;6189959;23;20258;-71
2022/05/15 11:08:31;;;;;;;0.00;0.00;;;;;;;;;;6209949;23;20228;-66
2022/05/15 11:11:04;;;;;;;0.00;0.00;;;;;;;;;;6191886;23;20211;-64
2022/05/15 11:13:33;;;;;;;0.00;0.00;;;;;;;;;;6208315;23;20173;-64
2022/05/15 11:16:04;;;;;;;0.00;0.00;;;;;;;;;;6192174;23;20211;-65
2022/05/15 11:18:39;;;;;;;0.00;0.00;;;;;;;;;;6207942;23;20193;-64
2022/05/15 11:21:07;;;;;;;0.00;0.00;;;;;;;;;;6192994;23;20287;-63
2022/05/15 11:23:37;;;;;;;0.00;0.00;;;;;;;;;;6207254;23;20201;-64
2022/05/15 11:26:09;;;;;;;0.00;0.00;;;;;;;;;;6192905;23;20215;-64
2022/05/15 11:28:37;;;;;;;0.00;0.00;;;;;;;;;;6206884;23;20177;-64
2022/05/15 11:31:09;;;;;;;0.10;0.10;;;;;;;;;;6192640;23;20216;-65
2022/05/15 11:33:48;;;;;;;0.00;0.00;;;;;;;;;;6207280;23;20169;-64
2022/05/15 11:36:15;;;;;;;0.00;0.00;;;;;;;;;;6194797;23;20219;-64
2022/05/15 11:38:46;;;;;;;0.00;0.00;;;;;;;;;;6205505;23;20181;-64
2022/05/15 11:41:28;;;;;;;0.10;0.10;;;;;;;;;;6194445;23;20527;-64
2022/05/15 11:43:58;;;;;;;0.00;0.00;;;;;;;;;;6202530;23;20243;-65
2022/05/15 11:46:39;;;;;;;0.00;0.00;;;;;;;;;;6196651;23;20215;-63
2022/05/15 11:49:11;;;;;;;0.00;0.00;;;;;;;;;;6199720;23;20425;-66
2022/05/15 11:51:37;;;;;;;0.05;0.05;;;;;;;;;;6198993;23;20543;-63
2022/05/15 11:54:04;;;;;;;0.00;0.00;;;;;;;;;;6201171;23;20177;-64
2022/05/15 11:56:37;;;;;;;0.00;0.00;;;;;;;;;;6198248;23;20216;-68
2022/05/15 11:59:05;;;;;;;0.00;0.00;;;;;;;;;;6201094;23;20193;-68
2022/05/15 12:01:45;;;;;;;0.00;0.00;;;;;;;;;;6197478;23;20527;-69
2022/05/15 12:04:19;;;;;;;0.10;0.10;;;;;;;;;;6199848;23;20247;-69
2022/05/15 12:06:47;;;;;;;0.00;0.00;;;;;;;;;;6200877;23;20211;-69
2022/05/15 12:09:49;;;;;;;0.05;0.05;;;;;;;;;;6199248;23;20227;-69
2022/05/15 12:12:34;;;;;;;0.00;0.00;;;;;;;;;;6204570;23;20536;-70
2022/05/15 12:15:05;;;;;;;0.00;0.00;;;;;;;;;;6195756;23;20473;-68
2022/05/15 12:17:34;;;;;;;0.00;0.00;;;;;;;;;;6179298;23;20190;-69
2022/05/15 12:20:05;;;;;;;0.00;0.00;;;;;;;;;;6195581;23;20179;-69
2022/05/15 12:22:36;;;;;;;0.00;0.00;;;;;;;;;;6179425;23;20234;-70
2022/05/15 12:25:09;;;;;;;0.00;0.00;;;;;;;;;;6195697;23;20226;-70
2022/05/15 12:27:41;;;;;;;0.00;0.00;;;;;;;;;;6179240;23;20252;-69
2022/05/15 12:30:12;;;;;;;0.00;0.00;;;;;;;;;;6181711;23;20184;-68
2022/05/15 12:32:40;;;;;;;0.00;0.00;;;;;;;;;;6216977;23;20255;-68
2022/05/15 12:35:11;;;;;;;0.00;0.00;;;;;;;;;;6181705;23;20208;-69
2022/05/15 12:37:52;;;;;;;0.00;0.00;;;;;;;;;;6217831;23;20176;-68
2022/05/15 12:40:24;;;;;;;0.10;0.10;;;;;;;;;;6183965;23;20184;-67
2022/05/15 12:42:50;;;;;;;0.00;0.00;;;;;;;;;;6215137;23;20279;-68
2022/05/15 12:45:20;;;;;;;0.10;0.10;;;;;;;;;;6182622;23;20238;-69
2022/05/15 12:47:57;;;;;;;0.00;0.00;;;;;;;;;;6216039;23;20167;-70
2022/05/15 12:50:25;;;;;;;0.10;0.10;;;;;;;;;;6184423;23;20187;-68
2022/05/15 12:52:52;;;;;;;0.10;0.10;;;;;;;;;;6214559;23;20184;-68
2022/05/15 12:55:22;;;;;;;0.05;0.05;;;;;;;;;;6183496;23;20242;-68
2022/05/15 12:57:50;;;;;;;0.00;0.00;;;;;;;;;;6215265;23;20161;-68
2022/05/15 13:00:19;;;;;;;0.00;0.00;;;;;;;;;;6182599;23;20187;-68
2022/05/15 13:02:47;;;;;;;0.00;0.00;;;;;;;;;;6215577;23;20262;-73
2022/05/15 13:05:20;;;;;;;0.00;0.00;;;;;;;;;;6182208;23;20221;-73
2022/05/15 13:07:53;;;;;;;0.00;0.00;;;;;;;;;;6215429;23;20477;-72
2022/05/15 13:10:20;;;;;;;0.00;0.00;;;;;;;;;;6183046;23;20503;-68
2022/05/15 13:12:51;;;;;;;0.10;0.10;;;;;;;;;;6215068;23;20226;-71
2022/05/15 13:15:19;;;;;;;0.00;0.00;;;;;;;;;;6182819;23;20205;-69
2022/05/15 13:17:45;;;;;;;0.10;0.10;;;;;;;;;;6216006;23;20519;-71
2022/05/15 13:20:15;;;;;;;0.10;0.10;;;;;;;;;;6181945;23;20241;-71
2022/05/15 13:22:42;;;;;;;0.00;0.00;;;;;;;;;;6215874;23;20201;-70
2022/05/15 13:25:12;;;;;;;0.00;0.00;;;;;;;;;;6188298;23;20171;-69
2022/05/15 13:27:41;;;;;;;0.00;0.00;;;;;;;;;;6217727;23;20178;-69
2022/05/15 13:30:09;;;;;;;0.00;0.00;;;;;;;;;;6180864;23;20190;-71
2022/05/15 13:32:35;;;;;;;0.00;0.00;;;;;;;;;;6217687;23;20211;-64
2022/05/15 13:35:01;;;;;;;0.00;0.00;;;;;;;;;;6194840;23;20219;-64
2022/05/15 13:37:30;;;;;;;0.00;0.00;;;;;;;;;;6203790;23;20414;-65
2022/05/15 13:45:28;;;;;;;0.00;0.00;;;;;;;;;;6209811;23;20301;-69
2022/05/15 13:48:02;;;;;;;0.00;0.00;;;;;;;;;;6223782;23;20467;-68
2022/05/15 13:50:34;;;;;;;1.73;1.73;;;;;;;;;;6210506;23;20219;-69
2022/05/15 13:53:15;;;;;;;0.00;0.00;;;;;;;;;;6225286;23;20194;-68
2022/05/15 13:55:41;;;;;;;0.00;0.00;;;;;;;;;;6210888;23;20221;-68
2022/05/15 13:58:09;;;;;;;0.00;0.00;;;;;;;;;;6225985;23;20399;-65
2022/05/15 14:00:36;;;;;;;0.00;0.00;;;;;;;;;;6211566;23;20311;-65
2022/05/15 14:03:03;;;;;;;0.10;0.10;;;;;;;;;;6225774;23;20368;-64
2022/05/15 14:05:31;;;;;;;0.00;0.00;;;;;;;;;;6211440;23;20265;-63
2022/05/15 14:08:13;;;;;;;0.00;0.00;;;;;;;;;;6225734;23;20236;-63
2022/05/15 14:10:40;;;;;;;0.10;0.10;;;;;;;;;;6207010;23;20275;-63
2022/05/15 14:13:08;;;;;;;0.00;0.00;;;;;;;;;;6225338;23;20231;-64
2022/05/15 14:15:37;;;;;;;0.00;0.00;;;;;;;;;;6211132;23;20279;-64
2022/05/15 14:18:04;;;;;;;0.00;0.00;;;;;;;;;;6225317;23;20521;-65
2022/05/15 14:20:32;;;;;;;0.10;0.10;;;;;;;;;;6211696;23;20272;-67
2022/05/15 14:22:58;;;;;;;0.10;0.10;;;;;;;;;;6225685;23;20188;-67
2022/05/15 14:25:25;;;;;;;0.00;0.00;;;;;;;;;;6211298;23;20415;-66
2022/05/15 14:27:51;;;;;;;0.00;0.00;;;;;;;;;;6225567;23;20198;-68
2022/05/15 14:30:17;;;;;;;0.00;0.00;;;;;;;;;;6211712;23;20363;-68
2022/05/15 14:32:50;;;;;;;0.00;0.00;;;;;;;;;;6225234;23;20156;-67
2022/05/15 14:35:18;;;;;;;0.00;0.00;;;;;;;;;;6211611;23;20466;-67
2022/05/15 14:37:45;;;;;;;0.05;0.05;;;;;;;;;;6225495;23;20172;-67
2022/05/15 14:40:12;;;;;;;0.00;0.00;;;;;;;;;;6211258;23;20203;-66
2022/05/15 14:42:39;;;;;;;0.00;0.00;;;;;;;;;;6225163;23;20178;-67
2022/05/15 14:45:06;;;;;;;0.10;0.10;;;;;;;;;;6225261;23;20467;-74
2022/05/15 14:47:33;;;;;;;0.05;0.05;;;;;;;;;;6225026;23;20241;-69
2022/05/15 14:50:04;;;;;;;0.00;0.00;;;;;;;;;;6226534;23;20192;-63
2022/05/15 14:52:32;;;;;;;0.00;0.00;;;;;;;;;;6184841;23;20189;-63
2022/05/15 14:54:59;;;;;;;0.00;0.00;;;;;;;;;;6226473;23;20396;-64
2022/05/15 14:57:27;;;;;;;0.00;0.00;;;;;;;;;;6209868;23;20267;-64
2022/05/15 14:59:53;;;;;;;0.00;0.00;;;;;;;;;;6226660;23;20183;-63
2022/05/15 15:02:22;;;;;;;0.00;0.00;;;;;;;;;;6209126;23;20534;-63
2022/05/15 15:04:48;;;;;;;0.00;0.00;;;;;;;;;;6226330;23;20200;-71
2022/05/15 15:07:16;;;;;;;0.10;0.10;;;;;;;;;;6209789;23;20213;-68
2022/05/15 15:09:45;;;;;;;0.10;0.10;;;;;;;;;;6226384;23;20209;-76
2022/05/15 15:12:12;;;;;;;0.00;0.00;;;;;;;;;;6209796;23;20221;-69
2022/05/15 15:14:39;;;;;;;0.00;0.00;;;;;;;;;;6226057;23;20174;-68
2022/05/15 15:17:05;;;;;;;0.00;0.00;;;;;;;;;;6209783;23;20223;-72